createdAt,value
2018-12-18T00:01:02.481Z,5.10
2018-12-18T00:03:31.673Z,5.20
2018-12-18T00:06:00.394Z,5.10
2018-12-18T00:08:29.733Z,5.20
2018-12-18T00:11:03.317Z,5.20
2018-12-18T00:13:32.756Z,5.20
2018-12-18T00:16:01.415Z,5.20
2018-12-18T00:18:29.974Z,5.20
2018-12-18T00:20:58.669Z,5.20
2018-12-18T00:23:32.007Z,5.20
2018-12-18T00:26:00.723Z,5.20
2018-12-18T00:28:29.236Z,5.20
2018-12-18T00:30:57.780Z,5.20
2018-12-18T00:33:27.099Z,5.20
2018-12-18T00:35:55.675Z,5.10
2018-12-18T00:38:24.319Z,5.10
2018-12-18T00:40:52.924Z,5.10
2018-12-18T00:43:21.957Z,5.10
2018-12-18T00:45:50.563Z,5.00
2018-12-18T00:48:19.058Z,5.00
2018-12-18T00:50:47.736Z,5.00
2018-12-18T00:53:16.236Z,5.00
2018-12-18T00:55:45.497Z,5.10
2018-12-18T00:58:14.064Z,5.10
2018-12-18T01:00:42.668Z,5.00
2018-12-18T01:03:11.280Z,5.00
2018-12-18T01:05:39.795Z,4.90
2018-12-18T01:08:08.447Z,4.90
2018-12-18T01:10:36.961Z,4.90
2018-12-18T01:13:05.513Z,4.80
2018-12-18T01:15:34.024Z,4.90
2018-12-18T01:18:02.671Z,4.90
2018-12-18T01:20:31.175Z,4.90
2018-12-18T01:22:59.845Z,4.90
2018-12-18T01:25:29.153Z,4.90
2018-12-18T01:27:57.896Z,4.90
2018-12-18T01:30:26.454Z,4.80
2018-12-18T01:32:55.695Z,4.80
2018-12-18T01:35:24.304Z,4.70
2018-12-18T01:37:53.563Z,4.60
2018-12-18T01:40:22.142Z,4.50
2018-12-18T01:42:50.696Z,4.40
2018-12-18T01:45:19.233Z,4.20
2018-12-18T01:47:48.227Z,4.00
2018-12-18T01:50:16.832Z,4.00
2018-12-18T01:52:45.568Z,4.00
2018-12-18T01:55:14.820Z,4.00
2018-12-18T01:57:43.424Z,4.00
2018-12-18T02:00:12.253Z,4.00
2018-12-18T02:02:41.508Z,4.00
2018-12-18T02:05:10.179Z,4.00
2018-12-18T02:07:38.932Z,3.90
2018-12-18T02:10:07.489Z,3.80
2018-12-18T02:12:36.222Z,3.70
2018-12-18T02:15:05.269Z,3.70
2018-12-18T02:17:33.939Z,3.70
2018-12-18T02:20:02.823Z,3.70
2018-12-18T02:22:31.448Z,3.70
2018-12-18T02:25:00.005Z,3.70
2018-12-18T02:27:28.526Z,3.70
2018-12-18T02:29:57.206Z,3.60
2018-12-18T02:32:25.775Z,3.60
2018-12-18T02:34:54.297Z,3.50
2018-12-18T02:37:22.900Z,3.50
2018-12-18T02:39:51.395Z,3.50
2018-12-18T02:42:20.068Z,3.50
2018-12-18T02:44:48.601Z,3.50
2018-12-18T02:47:17.159Z,3.50
2018-12-18T02:49:45.696Z,3.50
2018-12-18T02:52:14.200Z,3.50
2018-12-18T02:54:43.575Z,3.50
2018-12-18T02:57:12.870Z,3.60
2018-12-18T02:59:42.094Z,3.50
2018-12-18T03:02:10.702Z,3.50
2018-12-18T03:04:39.528Z,3.50
2018-12-18T03:07:08.324Z,3.40
2018-12-18T03:09:37.124Z,3.40
2018-12-18T03:12:05.615Z,3.30
2018-12-18T03:14:35.394Z,3.30
2018-12-18T03:17:04.331Z,3.30
2018-12-18T03:19:32.817Z,3.30
2018-12-18T03:22:01.423Z,3.30
2018-12-18T03:24:30.079Z,3.30
2018-12-18T03:26:58.815Z,3.20
2018-12-18T03:29:27.443Z,3.20
2018-12-18T03:32:00.676Z,3.10
2018-12-18T03:34:29.980Z,3.00
2018-12-18T03:36:58.579Z,3.00
2018-12-18T03:39:27.085Z,3.00
2018-12-18T03:41:55.719Z,3.00
2018-12-18T03:44:24.323Z,3.00
2018-12-18T03:46:53.492Z,2.90
2018-12-18T03:49:22.788Z,2.90
2018-12-18T03:51:51.304Z,2.90
2018-12-18T03:54:19.887Z,2.90
2018-12-18T03:56:48.528Z,2.90
2018-12-18T03:59:17.000Z,2.80
2018-12-18T04:01:45.660Z,2.70
2018-12-18T04:04:14.111Z,2.60
2018-12-18T04:06:43.411Z,2.60
2018-12-18T04:09:11.946Z,2.70
2018-12-18T04:11:46.325Z,2.60
2018-12-18T04:14:14.934Z,2.60
2018-12-18T04:16:43.519Z,2.60
2018-12-18T04:19:12.103Z,2.50
2018-12-18T04:21:40.608Z,2.40
2018-12-18T04:24:09.098Z,2.40
2018-12-18T04:26:37.595Z,2.40
2018-12-18T04:29:06.107Z,2.40
2018-12-18T04:31:34.661Z,2.30
2018-12-18T04:34:03.155Z,2.20
2018-12-18T04:36:31.729Z,2.20
2018-12-18T04:39:00.779Z,2.20
2018-12-18T04:41:29.212Z,2.20
2018-12-18T04:43:58.683Z,2.30
2018-12-18T04:46:27.161Z,2.30
2018-12-18T04:48:55.665Z,2.30
2018-12-18T04:51:24.180Z,2.30
2018-12-18T04:53:52.727Z,2.30
2018-12-18T04:56:21.160Z,2.30
2018-12-18T04:58:49.789Z,2.30
2018-12-18T05:01:18.278Z,2.10
2018-12-18T05:03:47.324Z,2.20
2018-12-18T05:06:15.879Z,2.10
2018-12-18T05:08:44.907Z,2.10
2018-12-18T05:11:13.391Z,2.10
2018-12-18T05:13:41.985Z,2.00
2018-12-18T05:16:11.170Z,2.00
2018-12-18T05:18:39.752Z,1.90
2018-12-18T05:21:08.336Z,1.90
2018-12-18T05:23:36.829Z,1.90
2018-12-18T05:26:05.463Z,1.90
2018-12-18T05:28:34.040Z,1.90
2018-12-18T05:31:02.638Z,1.90
2018-12-18T05:33:31.839Z,1.80
2018-12-18T05:36:01.016Z,1.90
2018-12-18T05:38:29.610Z,1.90
2018-12-18T05:40:58.924Z,2.00
2018-12-18T05:43:28.635Z,2.00
2018-12-18T05:45:57.423Z,2.10
2018-12-18T05:48:25.868Z,2.10
2018-12-18T05:50:54.486Z,2.00
2018-12-18T05:53:23.957Z,2.00
2018-12-18T05:55:53.220Z,2.00
2018-12-18T05:58:21.773Z,2.00
2018-12-18T06:00:50.380Z,2.00
2018-12-18T06:03:19.577Z,1.70
2018-12-18T06:05:48.099Z,1.60
2018-12-18T06:08:16.770Z,1.50
2018-12-18T06:10:45.253Z,1.60
2018-12-18T06:13:13.801Z,1.70
2018-12-18T06:15:42.278Z,1.90
2018-12-18T06:18:10.777Z,1.90
2018-12-18T06:20:39.241Z,2.00
2018-12-18T06:23:07.831Z,2.00
2018-12-18T06:25:37.072Z,2.00
2018-12-18T06:28:05.595Z,2.00
2018-12-18T06:30:34.167Z,2.10
2018-12-18T06:33:03.342Z,2.10
2018-12-18T06:35:31.873Z,2.10
2018-12-18T06:38:00.369Z,2.00
2018-12-18T06:40:29.512Z,2.10
2018-12-18T06:42:59.003Z,2.00
2018-12-18T06:45:27.555Z,2.00
2018-12-18T06:47:56.124Z,2.00
2018-12-18T06:50:24.713Z,2.00
2018-12-18T06:52:53.895Z,2.00
2018-12-18T06:55:22.436Z,2.00
2018-12-18T06:57:51.080Z,2.00
2018-12-18T07:00:19.576Z,1.60
2018-12-18T07:02:48.253Z,2.00
2018-12-18T07:05:17.302Z,2.00
2018-12-18T07:07:45.829Z,2.10
2018-12-18T07:10:14.314Z,2.10
2018-12-18T07:12:43.688Z,2.00
2018-12-18T07:15:13.725Z,2.00
2018-12-18T07:17:42.311Z,2.00
2018-12-18T07:20:11.251Z,1.90
2018-12-18T07:22:39.981Z,1.90
2018-12-18T07:25:09.139Z,2.00
2018-12-18T07:27:37.686Z,2.00
2018-12-18T07:30:06.286Z,2.00
2018-12-18T07:32:34.816Z,2.10
2018-12-18T07:35:03.488Z,2.20
2018-12-18T07:37:31.932Z,2.30
2018-12-18T07:40:00.459Z,2.30
2018-12-18T07:42:28.980Z,2.30
2018-12-18T07:44:57.547Z,2.40
2018-12-18T07:47:26.290Z,2.40
2018-12-18T07:49:55.559Z,2.40
2018-12-18T07:52:24.039Z,2.40
2018-12-18T07:54:52.802Z,2.50
2018-12-18T07:57:21.980Z,2.60
2018-12-18T07:59:51.101Z,2.60
2018-12-18T08:02:19.587Z,2.60
2018-12-18T08:04:48.166Z,2.80
2018-12-18T08:07:16.683Z,2.80
2018-12-18T08:09:45.373Z,2.90
2018-12-18T08:12:14.255Z,2.90
2018-12-18T08:14:43.558Z,3.10
2018-12-18T08:17:12.360Z,3.30
2018-12-18T08:19:40.857Z,3.50
2018-12-18T08:22:09.563Z,3.60
2018-12-18T08:24:38.143Z,3.70
2018-12-18T08:27:06.659Z,3.70
2018-12-18T08:29:35.261Z,3.80
2018-12-18T08:32:03.918Z,3.80
2018-12-18T08:34:32.443Z,3.90
2018-12-18T08:37:01.556Z,4.10
2018-12-18T08:39:30.165Z,4.20
2018-12-18T08:41:58.809Z,4.30
2018-12-18T08:44:27.486Z,4.40
2018-12-18T08:46:55.911Z,4.50
2018-12-18T08:49:25.675Z,4.50
2018-12-18T08:51:54.340Z,4.60
2018-12-18T08:54:22.877Z,4.50
2018-12-18T08:56:52.228Z,4.60
2018-12-18T08:59:20.817Z,4.60
2018-12-18T09:01:49.350Z,4.70
2018-12-18T09:04:18.265Z,4.90
2018-12-18T09:06:46.957Z,5.00
2018-12-18T09:09:15.928Z,5.10
2018-12-18T09:11:44.593Z,5.10
2018-12-18T09:14:13.130Z,5.10
2018-12-18T09:16:46.976Z,5.10
2018-12-18T09:19:15.571Z,5.10
2018-12-18T09:21:44.387Z,5.10
2018-12-18T09:24:12.960Z,5.00
2018-12-18T09:26:42.196Z,5.10
2018-12-18T09:29:11.329Z,5.20
2018-12-18T09:31:39.882Z,5.30
2018-12-18T09:34:08.417Z,5.20
2018-12-18T09:36:36.935Z,5.30
2018-12-18T09:39:12.974Z,5.30
2018-12-18T09:41:44.428Z,5.40
2018-12-18T09:44:17.954Z,5.50
2018-12-18T09:46:46.958Z,5.50
2018-12-18T09:49:15.605Z,5.50
2018-12-18T09:51:44.856Z,5.70
2018-12-18T09:54:14.132Z,5.60
2018-12-18T09:56:48.033Z,5.50
2018-12-18T09:59:16.521Z,5.60
2018-12-18T10:01:45.163Z,5.70
2018-12-18T10:04:13.636Z,5.80
2018-12-18T10:06:42.128Z,5.90
2018-12-18T10:09:10.704Z,6.00
2018-12-18T10:11:39.157Z,6.00
2018-12-18T10:14:07.800Z,6.10
2018-12-18T10:16:37.007Z,6.10
2018-12-18T10:19:05.472Z,6.20
2018-12-18T10:21:33.979Z,6.20
2018-12-18T10:24:03.207Z,6.30
2018-12-18T10:26:31.666Z,6.40
2018-12-18T10:29:00.245Z,6.40
2018-12-18T10:31:28.989Z,6.50
2018-12-18T10:33:57.416Z,6.60
2018-12-18T10:36:26.031Z,6.70
2018-12-18T10:38:54.552Z,6.70
2018-12-18T10:41:23.734Z,6.70
2018-12-18T10:43:52.762Z,6.90
2018-12-18T10:46:21.372Z,6.90
2018-12-18T10:48:49.918Z,7.10
2018-12-18T10:51:18.724Z,7.10
2018-12-18T10:53:47.261Z,7.10
2018-12-18T10:56:15.790Z,7.10
2018-12-18T10:58:44.345Z,7.20
2018-12-18T11:01:16.249Z,7.30
2018-12-18T11:03:45.707Z,7.30
2018-12-18T11:06:14.999Z,7.40
2018-12-18T11:08:43.498Z,7.60
2018-12-18T11:11:12.063Z,7.70
2018-12-18T11:13:41.579Z,7.80
2018-12-18T11:16:10.231Z,7.90
2018-12-18T11:18:39.433Z,8.00
2018-12-18T11:21:08.066Z,8.00
2018-12-18T11:23:37.336Z,8.20
2018-12-18T11:26:05.859Z,8.20
2018-12-18T11:28:34.844Z,8.40
2018-12-18T11:31:03.343Z,8.40
2018-12-18T11:33:31.815Z,8.60
2018-12-18T11:36:01.624Z,8.90
2018-12-18T11:38:30.223Z,9.40
2018-12-18T11:40:58.759Z,9.10
2018-12-18T11:43:27.259Z,9.10
2018-12-18T11:45:56.891Z,9.20
2018-12-18T11:48:25.564Z,9.20
2018-12-18T11:50:54.909Z,9.10
2018-12-18T11:53:23.460Z,9.10
2018-12-18T11:55:51.998Z,9.20
2018-12-18T11:58:20.581Z,9.40
2018-12-18T12:00:49.138Z,9.60
2018-12-18T12:03:17.643Z,9.60
2018-12-18T12:05:46.284Z,9.70
2018-12-18T12:08:14.829Z,9.70
2018-12-18T12:10:43.867Z,9.80
2018-12-18T12:13:12.367Z,9.90
2018-12-18T12:15:41.168Z,9.90
2018-12-18T12:18:09.690Z,9.90
2018-12-18T12:20:38.915Z,10.10
2018-12-18T12:23:07.475Z,10.10
2018-12-18T12:25:36.120Z,10.10
2018-12-18T12:28:06.227Z,10.10
2018-12-18T12:30:35.614Z,10.00
2018-12-18T12:33:04.207Z,10.10
2018-12-18T12:35:33.134Z,10.10
2018-12-18T12:38:01.759Z,10.10
2018-12-18T12:40:30.273Z,10.20
2018-12-18T12:42:58.806Z,10.20
2018-12-18T12:45:27.350Z,10.10
2018-12-18T12:48:27.768Z,10.20
2018-12-18T12:50:56.358Z,10.20
2018-12-18T12:53:25.413Z,9.90
2018-12-18T12:55:54.062Z,9.80
2018-12-18T12:58:22.598Z,9.70
2018-12-18T13:00:51.167Z,9.60
2018-12-18T13:03:19.790Z,9.50
2018-12-18T13:05:49.207Z,9.60
2018-12-18T13:08:18.419Z,9.40
2018-12-18T13:10:47.922Z,9.30
2018-12-18T13:13:16.477Z,9.30
2018-12-18T13:15:45.046Z,9.40
2018-12-18T13:18:13.582Z,9.40
2018-12-18T13:20:42.106Z,9.30
2018-12-18T13:23:11.607Z,9.20
2018-12-18T13:25:40.878Z,9.10
2018-12-18T13:28:09.539Z,9.00
2018-12-18T13:30:39.460Z,9.00
2018-12-18T13:33:08.266Z,9.20
2018-12-18T13:35:36.855Z,9.30
2018-12-18T13:38:05.441Z,9.30
2018-12-18T13:40:33.970Z,9.20
2018-12-18T13:43:02.536Z,9.30
2018-12-18T13:45:31.250Z,9.30
2018-12-18T13:48:00.705Z,9.20
2018-12-18T13:50:29.262Z,9.10
2018-12-18T13:53:02.021Z,9.20
2018-12-18T13:55:36.608Z,9.10
2018-12-18T13:58:03.705Z,9.00
2018-12-18T14:00:32.598Z,9.00
2018-12-18T14:03:01.809Z,9.10
2018-12-18T14:05:30.404Z,9.10
2018-12-18T14:08:00.805Z,9.00
2018-12-18T14:10:29.661Z,8.90
2018-12-18T14:12:59.047Z,8.90
2018-12-18T14:15:32.191Z,8.80
2018-12-18T14:18:02.593Z,8.70
2018-12-18T14:20:31.426Z,8.60
2018-12-18T14:22:59.973Z,8.50
2018-12-18T14:25:28.884Z,8.40
2018-12-18T14:27:57.499Z,8.40
2018-12-18T14:30:27.728Z,8.40
2018-12-18T14:32:56.897Z,8.40
2018-12-18T14:35:26.133Z,8.20
2018-12-18T14:37:54.777Z,8.20
2018-12-18T14:40:23.827Z,8.20
2018-12-18T14:42:52.358Z,8.20
2018-12-18T14:45:20.962Z,8.20
2018-12-18T14:47:49.436Z,8.20
2018-12-18T14:50:17.975Z,8.20
2018-12-18T14:52:46.575Z,8.10
2018-12-18T14:55:15.889Z,8.10
2018-12-18T14:57:44.376Z,8.00
2018-12-18T15:00:12.971Z,7.90
2018-12-18T15:02:47.617Z,7.80
2018-12-18T15:05:17.736Z,7.60
2018-12-18T15:07:46.509Z,7.60
2018-12-18T15:10:15.079Z,7.40
2018-12-18T15:12:50.105Z,7.30
2018-12-18T15:15:19.112Z,7.30
2018-12-18T15:17:47.659Z,7.20
2018-12-18T15:20:16.175Z,7.00
2018-12-18T15:22:45.112Z,6.90
2018-12-18T15:25:13.755Z,6.80
2018-12-18T15:27:42.368Z,6.60
2018-12-18T15:30:11.718Z,6.60
2018-12-18T15:32:41.020Z,6.50
2018-12-18T15:35:09.613Z,6.50
2018-12-18T15:37:47.208Z,6.40
2018-12-18T15:40:15.763Z,6.50
2018-12-18T15:42:44.974Z,6.40
2018-12-18T15:45:13.632Z,6.30
2018-12-18T15:47:42.207Z,6.30
2018-12-18T15:50:11.802Z,6.30
2018-12-18T15:52:40.353Z,6.30
2018-12-18T15:55:08.936Z,6.10
2018-12-18T15:57:38.216Z,6.20
2018-12-18T16:00:07.786Z,6.10
2018-12-18T16:02:36.415Z,6.00
2018-12-18T16:05:05.589Z,6.00
2018-12-18T16:07:34.284Z,5.90
2018-12-18T16:10:03.301Z,5.70
2018-12-18T16:12:32.057Z,5.70
2018-12-18T16:15:00.703Z,5.60
2018-12-18T16:17:29.274Z,5.50
2018-12-18T16:20:02.366Z,5.50
2018-12-18T16:22:31.070Z,5.40
2018-12-18T16:24:59.665Z,5.70
2018-12-18T16:27:29.727Z,5.30
2018-12-18T16:29:58.836Z,5.20
2018-12-18T16:32:27.419Z,5.20
2018-12-18T16:34:56.032Z,5.20
2018-12-18T16:37:24.748Z,5.30
2018-12-18T16:39:53.969Z,5.30
2018-12-18T16:42:23.077Z,5.30
2018-12-18T16:44:51.878Z,5.30
2018-12-18T16:47:20.979Z,5.20
2018-12-18T16:49:49.671Z,5.10
2018-12-18T16:52:18.197Z,5.00
2018-12-18T16:54:48.388Z,4.80
2018-12-18T16:57:17.479Z,4.70
2018-12-18T16:59:46.010Z,4.60
2018-12-18T17:02:14.649Z,4.60
2018-12-18T17:04:43.249Z,4.50
2018-12-18T17:07:12.380Z,4.20
2018-12-18T17:09:41.003Z,3.90
2018-12-18T18:06:33.616Z,3.40
2018-12-18T18:09:02.323Z,3.40
2018-12-18T18:11:31.778Z,3.40
2018-12-18T18:14:01.131Z,3.40
2018-12-18T18:16:29.700Z,3.40
2018-12-18T18:18:58.343Z,3.40
2018-12-18T18:21:27.715Z,3.40
2018-12-18T18:23:56.907Z,3.40
2018-12-18T18:26:25.537Z,3.20
2018-12-18T18:28:54.226Z,3.10
2018-12-18T18:31:23.208Z,3.10
2018-12-18T18:33:51.718Z,3.00
2018-12-18T18:36:21.313Z,3.00
2018-12-18T18:38:50.961Z,2.90
2018-12-18T18:41:19.637Z,2.90
2018-12-18T18:43:48.210Z,2.70
2018-12-18T18:46:18.216Z,2.60
2018-12-18T18:48:51.449Z,2.60
2018-12-18T18:51:20.191Z,2.60
2018-12-18T18:53:49.043Z,2.60
2018-12-18T18:56:17.598Z,2.50
2018-12-18T18:58:46.224Z,2.50
2018-12-18T19:01:15.123Z,2.30
2018-12-18T19:03:43.726Z,2.40
2018-12-18T19:06:17.479Z,2.40
2018-12-18T19:08:46.017Z,2.30
2018-12-18T19:11:14.569Z,2.30
2018-12-18T19:13:44.041Z,2.20
2018-12-18T19:16:17.629Z,2.20
2018-12-18T19:18:47.504Z,2.30
2018-12-18T19:21:16.751Z,2.40
2018-12-18T19:23:45.872Z,2.40
2018-12-18T19:26:14.733Z,2.50
2018-12-18T19:28:50.051Z,2.60
2018-12-18T19:31:14.264Z,2.60
2018-12-18T19:33:44.186Z,2.70
2018-12-18T19:36:13.066Z,2.60
2018-12-18T19:38:41.647Z,2.50
2018-12-18T19:41:10.164Z,2.40
2018-12-18T19:43:38.761Z,2.40
2018-12-18T19:46:07.473Z,2.50
2018-12-18T19:48:36.502Z,2.50
2018-12-18T19:51:05.299Z,2.40
2018-12-18T19:53:33.869Z,2.40
2018-12-18T19:56:02.560Z,2.40
2018-12-18T19:58:31.231Z,2.40
2018-12-18T20:01:00.309Z,2.30
2018-12-18T20:03:29.339Z,2.20
2018-12-18T20:05:58.527Z,2.00
2018-12-18T20:08:27.099Z,2.00
2018-12-18T20:10:55.698Z,2.00
2018-12-18T20:13:24.444Z,2.10
2018-12-18T20:15:53.298Z,2.20
2018-12-18T20:18:21.894Z,2.30
2018-12-18T20:20:50.520Z,2.30
2018-12-18T20:23:19.512Z,2.30
2018-12-18T20:25:48.520Z,2.30
2018-12-18T20:28:18.083Z,2.30
2018-12-18T20:30:48.172Z,2.30
2018-12-18T20:33:17.377Z,2.30
2018-12-18T20:35:46.951Z,2.30
2018-12-18T20:38:16.992Z,2.30
2018-12-18T20:40:45.942Z,2.30
2018-12-18T20:43:14.518Z,2.30
2018-12-18T20:45:43.311Z,2.30
2018-12-18T20:48:11.975Z,2.30
2018-12-18T20:50:40.621Z,2.30
2018-12-18T20:53:09.275Z,2.10
2018-12-18T20:55:38.541Z,2.10
2018-12-18T20:58:07.246Z,2.10
2018-12-18T21:00:35.847Z,2.00
2018-12-18T21:03:05.139Z,2.00
2018-12-18T21:05:34.288Z,2.00
2018-12-18T21:08:03.370Z,2.10
2018-12-18T21:10:32.080Z,2.00
2018-12-18T21:13:05.871Z,2.00
2018-12-18T21:15:34.445Z,2.00
2018-12-18T21:18:02.940Z,2.00
2018-12-18T21:20:32.636Z,2.00
2018-12-18T21:23:01.261Z,1.90
2018-12-18T21:25:29.782Z,1.60
2018-12-18T21:27:58.877Z,1.60
2018-12-18T21:30:27.506Z,1.60
2018-12-18T21:32:56.043Z,1.70
2018-12-18T21:35:24.638Z,1.90
2018-12-18T21:37:53.257Z,1.90
2018-12-18T21:40:22.572Z,1.90
2018-12-18T21:42:51.351Z,1.90
2018-12-18T21:45:20.654Z,1.90
2018-12-18T21:47:49.312Z,1.90
2018-12-18T21:50:17.824Z,1.90
2018-12-18T21:52:46.434Z,1.90
2018-12-18T21:55:15.831Z,1.90
2018-12-18T21:57:44.329Z,1.80
2018-12-18T22:00:13.466Z,1.60
2018-12-18T22:02:42.403Z,1.40
2018-12-18T22:05:10.999Z,1.40
2018-12-18T22:07:39.527Z,1.30
2018-12-18T22:10:09.371Z,1.30
2018-12-18T22:12:37.911Z,1.30
2018-12-18T22:15:06.726Z,1.30
2018-12-18T22:17:35.891Z,1.30
2018-12-18T22:20:05.415Z,1.40
2018-12-18T22:22:34.034Z,1.40
2018-12-18T22:25:02.572Z,1.50
2018-12-18T22:27:31.366Z,1.60
2018-12-18T22:30:00.025Z,1.60
2018-12-18T22:32:29.386Z,1.70
2018-12-18T22:34:58.459Z,1.70
2018-12-18T22:37:27.725Z,1.80
2018-12-18T22:39:56.894Z,1.80
2018-12-18T22:42:25.467Z,1.80
2018-12-18T22:44:54.025Z,1.80
2018-12-18T22:47:22.544Z,1.80
2018-12-18T22:49:51.261Z,1.80
2018-12-18T22:52:19.924Z,1.80
2018-12-18T22:54:48.578Z,1.80
2018-12-18T22:57:17.329Z,1.80
2018-12-18T22:59:45.948Z,1.80
2018-12-18T23:02:15.926Z,1.70
2018-12-18T23:04:45.276Z,1.70
2018-12-18T23:07:14.480Z,1.70
2018-12-18T23:09:43.210Z,1.70
2018-12-18T23:12:11.899Z,1.70
2018-12-18T23:14:40.414Z,1.70
2018-12-18T23:17:09.071Z,1.70
2018-12-18T23:19:37.606Z,1.70
2018-12-18T23:22:06.160Z,1.70
2018-12-18T23:24:34.808Z,1.70
2018-12-18T23:27:03.343Z,1.70
2018-12-18T23:29:31.858Z,1.60
2018-12-18T23:32:00.369Z,1.50
2018-12-18T23:34:33.031Z,1.50
2018-12-18T23:37:00.312Z,1.40
2018-12-18T23:39:28.996Z,1.40
2018-12-18T23:41:58.551Z,1.50
2018-12-18T23:44:27.191Z,1.50
2018-12-18T23:46:55.721Z,1.50
2018-12-18T23:49:24.199Z,1.60
2018-12-18T23:51:52.699Z,1.60
2018-12-18T23:54:21.283Z,1.60
2018-12-18T23:56:49.892Z,1.60
2018-12-18T23:59:19.035Z,1.70
